KXBP

Details ICAO KXBP
Name BRIDGEPORT MUNI
Region United States
Timezone America/Chicago (UTC-5.0)
Plans Departing 3
Arriving 3
Stats Elevation 852 ft / 260 m (AMSL)
Location 33.175336° -97.828395°
Runways 1
Magnetic Variation 3.860° E
Sunrise 2018-05-20 11:29:47 UTC / 2018-05-20 06:29:47 Local
Sunset 2018-05-21 01:28:46 UTC / 2018-05-20 20:28:46 Local
Advertisement - Login to hide

Runways

ID Width Length Bearing (true) Bearing (mag) Surface Threshold Offset Overrun Length
17 60 ft / 18 m 4,015 ft / 1,224 m 181.20° 177.34° Asphalt 0 ft / 0 m 0 ft / 0 m
35 60 ft / 18 m 4,015 ft / 1,224 m 1.20° 357.34° Asphalt 0 ft / 0 m 0 ft / 0 m

Map

Weather


0- 5 10 15 20 25 30 35+ Temperature / ° C

Clouds and Precipitation
Forecast for 2018-05-21 00:00 UTC. Updated 44 minutes ago

Ground ~20,000 ft ~40,000 ft Winds

METAR

KXBP 202355Z AUTO 01005KT 10SM CLR 25/17 A3001 RMK AO2 T02500169 10263 20243

TAF

Not found

Frequencies

Recorded 119.22 MHz AWOS 3
Unicom 123.00 MHz CTAF/UNICOM
Warning: Do not use this data for real-world aviation or navigation. No guarantee of current accuracy is given.